Stations météo

réclame
Mon MeteoGroup
Merida, Espagne (8331): Température de l'air & dewpoint: 18.05.2019 05:00:00 - 24.05.2019 05:00:00 (CEST)Merida, Espagne (8331): Vitesse du vent & gusts: 18.05.2019 05:00:00 - 24.05.2019 05:00:00 (CEST)Merida, Espagne (8331): Direction du vent: 18.05.2019 05:00:00 - 24.05.2019 05:00:00 (CEST)Merida, Espagne (8331): Quantités de précipitations: 18.05.2019 05:00:00 - 24.05.2019 05:00:00 (CEST)
Date & Time tt [°C] td [°C] ff [km/h] ff [knt] fx [km/h] fx [knt] dd rr [mm]
24.05.2019 05:00:00 - - - - - - - -
24.05.2019 04:00:00 13,7 9,3 10 6 20 11 WSW 0,0
24.05.2019 03:00:00 14,9 9,9 13 7 32 18 WSW 0,0
24.05.2019 02:00:00 16,2 12,0 15 8 27 14 WSW -
24.05.2019 01:00:00 17,5 12,8 11 6 26 14 WSW 0,0
24.05.2019 00:00:00 19,0 12,5 12 7 28 15 W 0,0
23.05.2019 23:00:00 20,9 12,1 11 6 34 18 W 0,0
23.05.2019 22:00:00 22,9 11,0 11 6 26 14 W 0,0
23.05.2019 21:00:00 24,1 8,5 14 7 30 16 W 0,0
23.05.2019 20:00:00 25,3 8,3 16 8 31 17 W -
23.05.2019 19:00:00 26,7 9,0 16 9 36 19 WSW 0,0
23.05.2019 18:00:00 28,6 8,8 13 7 34 18 WSW 0,0
23.05.2019 17:00:00 29,6 10,2 16 8 35 19 W 0,0
23.05.2019 16:00:00 29,8 10,9 16 9 34 18 W 0,0
23.05.2019 15:00:00 28,9 11,4 13 7 28 15 W 0,0
23.05.2019 14:00:00 28,6 11,7 12 6 26 14 W -
23.05.2019 13:00:00 26,6 12,6 10 6 21 12 W 0,0
23.05.2019 12:00:00 23,6 12,5 8 4 19 10 W 0,0
23.05.2019 11:00:00 21,3 11,9 11 6 20 11 W 0,0
23.05.2019 10:00:00 20,5 12,2 9 5 16 9 W 0,0
23.05.2019 09:00:00 17,8 11,6 8 4 15 8 W 0,0
23.05.2019 08:00:00 15,3 12,6 2 1 6 4 W -
23.05.2019 07:00:00 12,7 11,2 2 1 7 4 W 0,0
23.05.2019 06:00:00 13,6 11,0 1 1 10 6 W 0,0
23.05.2019 05:00:00 14,9 11,7 5 3 16 9 WSW 0,0
23.05.2019 04:00:00 16,5 12,2 8 4 15 8 WSW 0,0
23.05.2019 03:00:00 17,3 12,8 8 4 21 11 WSW 0,0
23.05.2019 02:00:00 19,3 13,3 10 6 22 12 SW -
23.05.2019 01:00:00 20,0 10,6 7 4 16 8 WSW 0,0
23.05.2019 00:00:00 20,9 10,0 7 4 14 8 SW 0,0
22.05.2019 23:00:00 21,6 9,4 5 3 10 5 WSW 0,0
22.05.2019 22:00:00 22,3 8,4 5 3 9 5 WSW 0,0
22.05.2019 21:00:00 27,6 10,3 5 3 16 9 W 0,0
22.05.2019 20:00:00 29,0 10,6 6 3 21 11 W -
22.05.2019 19:00:00 30,1 11,1 9 5 19 11 WSW 0,0
22.05.2019 18:00:00 31,0 11,9 8 4 24 13 W 0,0
22.05.2019 17:00:00 32,1 12,8 5 3 16 9 WNW 0,0
22.05.2019 16:00:00 29,4 10,5 7 4 17 9 W 0,0
22.05.2019 15:00:00 30,0 11,0 8 4 17 9 WNW 0,0
22.05.2019 14:00:00 29,1 12,1 5 3 16 9 WSW -
22.05.2019 13:00:00 28,6 13,7 3 2 14 7 W 0,0
22.05.2019 12:00:00 24,2 12,5 2 1 10 6 SW 0,0
22.05.2019 11:00:00 22,5 13,1 5 3 11 6 W 0,0
22.05.2019 10:00:00 20,5 13,3 4 2 10 5 W 0,0
22.05.2019 09:00:00 18,7 12,4 2 1 6 4 W 0,0
22.05.2019 08:00:00 15,5 13,6 3 1 6 3 NNW -
22.05.2019 07:00:00 12,1 11,7 5 3 10 5 WSW 0,0
22.05.2019 06:00:00 12,9 11,8 3 2 11 6 W 0,0
22.05.2019 05:00:00 13,5 12,2 4 2 14 7 SW 0,0
22.05.2019 04:00:00 15,1 12,7 7 4 18 10 WSW 0,0
22.05.2019 03:00:00 15,8 12,3 7 4 19 10 SW 0,0
22.05.2019 02:00:00 16,5 11,4 10 5 19 11 SW -
22.05.2019 01:00:00 15,8 10,3 3 2 8 4 SW 0,0
22.05.2019 00:00:00 16,6 10,2 5 3 8 5 WSW 0,0
21.05.2019 23:00:00 17,7 10,0 5 3 10 6 SW 0,0
21.05.2019 22:00:00 19,9 9,4 4 2 21 11 SW 0,0
21.05.2019 21:00:00 24,2 9,8 11 6 21 12 W 0,0
21.05.2019 20:00:00 25,1 8,9 9 5 22 12 WSW -
21.05.2019 19:00:00 26,2 9,6 9 5 27 15 SW 0,0
21.05.2019 18:00:00 27,6 9,9 9 5 23 12 WNW 0,0
21.05.2019 17:00:00 26,7 9,9 8 4 26 14 SSW 0,0
21.05.2019 16:00:00 26,7 10,4 5 3 24 13 W 0,0
21.05.2019 15:00:00 25,9 10,5 5 3 25 14 SW 0,0
21.05.2019 14:00:00 24,5 10,4 9 5 22 12 W -
21.05.2019 13:00:00 23,6 9,6 10 5 23 13 WSW 0,0
21.05.2019 12:00:00 22,0 10,2 9 5 19 11 W 0,0
21.05.2019 11:00:00 19,0 10,0 9 5 19 10 W 0,0
21.05.2019 10:00:00 17,5 10,9 7 4 21 11 WSW 0,0
21.05.2019 09:00:00 14,6 11,2 10 6 20 11 W 0,0
21.05.2019 08:00:00 12,4 11,0 9 5 16 9 WSW -
21.05.2019 07:00:00 10,4 9,9 4 2 15 8 WSW 0,0
21.05.2019 06:00:00 11,6 10,5 7 4 17 9 WSW 0,0
21.05.2019 05:00:00 12,3 10,0 9 5 20 11 WSW 0,0
21.05.2019 04:00:00 13,0 9,7 8 4 16 9 SW 0,0
21.05.2019 03:00:00 13,6 8,7 9 5 17 9 SW 0,0
21.05.2019 02:00:00 14,8 8,5 8 4 16 9 SW -
21.05.2019 01:00:00 15,8 8,0 7 4 17 9 WSW 0,0
21.05.2019 00:00:00 17,7 8,3 9 5 19 10 WSW 0,0
20.05.2019 23:00:00 18,9 7,7 9 5 19 10 WSW 0,0
20.05.2019 22:00:00 20,5 7,8 12 6 31 17 WSW 0,0
20.05.2019 21:00:00 22,5 8,3 16 9 37 20 WSW 0,0
20.05.2019 20:00:00 24,5 8,0 16 8 36 20 WSW -
20.05.2019 19:00:00 25,6 9,0 14 8 29 16 WSW 0,0
20.05.2019 18:00:00 25,7 8,3 14 8 34 18 W 0,0
20.05.2019 17:00:00 25,2 8,7 9 5 26 14 WSW 0,0
20.05.2019 16:00:00 25,3 9,2 9 5 28 15 W 0,0
20.05.2019 15:00:00 24,4 9,2 9 5 23 12 W 0,0
20.05.2019 14:00:00 23,2 9,2 8 4 18 10 WSW -
20.05.2019 13:00:00 21,8 9,7 3 1 18 10 W 0,0
20.05.2019 12:00:00 18,7 8,9 8 4 17 9 W 0,0
20.05.2019 11:00:00 16,9 8,4 7 4 16 8 W 0,0
20.05.2019 10:00:00 15,0 8,0 9 5 18 10 WSW 0,0
20.05.2019 09:00:00 12,3 6,8 10 6 18 10 WSW 0,0
20.05.2019 08:00:00 10,5 7,0 5 3 9 5 WSW -
20.05.2019 07:00:00 7,9 5,5 5 3 11 6 W 0,0
20.05.2019 06:00:00 9,2 5,8 6 3 12 6 WSW 0,0
20.05.2019 05:00:00 9,8 5,9 8 4 16 8 W 0,0
20.05.2019 04:00:00 10,7 6,2 7 4 13 7 WSW 0,0
20.05.2019 03:00:00 12,2 6,7 7 4 16 8 SW 0,0
20.05.2019 02:00:00 13,5 6,8 9 5 17 9 SW -
20.05.2019 01:00:00 14,6 7,4 8 4 14 7 WSW 0,0
20.05.2019 00:00:00 15,8 7,0 8 4 16 9 WSW 0,0
19.05.2019 23:00:00 16,8 7,1 6 3 17 9 SW 0,0
19.05.2019 22:00:00 18,5 7,0 11 6 31 17 WSW 0,0
19.05.2019 21:00:00 20,3 6,5 19 11 35 19 WSW 0,0
19.05.2019 20:00:00 22,0 7,0 16 8 36 20 W -
19.05.2019 19:00:00 23,3 7,0 17 9 36 19 WSW 0,0
19.05.2019 18:00:00 24,9 8,0 14 8 36 20 W 0,0
19.05.2019 17:00:00 25,0 8,0 12 6 34 18 WSW 0,0
19.05.2019 16:00:00 24,3 7,4 11 6 41 22 WNW 0,0
19.05.2019 15:00:00 22,4 7,4 10 5 31 17 SW 0,0
19.05.2019 14:00:00 21,8 7,6 8 4 26 14 WSW -
19.05.2019 13:00:00 20,8 8,1 7 4 19 11 W 0,0
19.05.2019 12:00:00 19,1 8,7 9 5 22 12 WSW 0,0
19.05.2019 11:00:00 17,5 8,1 9 5 20 11 W 0,0
19.05.2019 10:00:00 15,6 8,4 10 6 21 11 W 0,0
19.05.2019 09:00:00 13,1 8,5 10 5 18 10 W 0,0
19.05.2019 08:00:00 10,8 8,8 7 4 13 7 WSW -
19.05.2019 07:00:00 8,4 7,0 4 2 16 9 SSW 0,0
19.05.2019 06:00:00 10,6 7,4 8 4 16 9 WSW 0,0
19.05.2019 05:00:00 11,3 7,0 7 4 13 7 SW 0,0
19.05.2019 04:00:00 12,3 6,8 8 4 19 10 WSW 0,0
19.05.2019 03:00:00 12,8 6,1 9 5 21 11 WSW 0,0
19.05.2019 02:00:00 13,4 5,8 11 6 22 12 WSW -
19.05.2019 01:00:00 14,2 5,6 10 5 26 14 W 0,0
19.05.2019 00:00:00 14,9 5,1 11 6 29 16 W 0,0
18.05.2019 23:00:00 15,7 4,6 12 6 29 15 W 0,0
18.05.2019 22:00:00 16,7 3,8 13 7 27 14 WNW 0,0
18.05.2019 21:00:00 18,0 3,8 14 8 33 18 WNW 0,0
18.05.2019 20:00:00 19,6 4,8 16 8 34 19 WNW -
18.05.2019 19:00:00 21,0 5,0 16 9 33 18 W 0,0
18.05.2019 18:00:00 22,0 5,8 13 7 35 19 NW 0,0
18.05.2019 17:00:00 22,1 5,9 18 10 36 20 WNW 0,0
18.05.2019 16:00:00 22,1 5,9 14 8 35 19 WNW 0,0
18.05.2019 15:00:00 21,4 6,5 12 7 42 23 WNW 0,0
18.05.2019 14:00:00 20,0 5,9 14 8 37 20 WNW -
18.05.2019 13:00:00 19,5 5,9 13 7 38 21 NW 0,0
18.05.2019 12:00:00 17,7 5,3 13 7 31 17 NW 0,0
18.05.2019 11:00:00 16,8 5,8 10 5 35 19 NW 0,0
18.05.2019 10:00:00 14,9 5,9 13 7 27 15 WNW 0,0
18.05.2019 09:00:00 13,0 6,4 12 7 26 14 W 0,0
18.05.2019 08:00:00 10,2 6,1 11 6 22 12 WSW -
18.05.2019 07:00:00 7,9 5,5 6 4 14 7 WSW 0,0
18.05.2019 06:00:00 7,8 4,6 4 2 13 7 S 0,0
18.05.2019 05:00:00 9,8 5,0 6 3 13 7 W 0,0

tt = Température de l'air
td = dewpoint
ff = Vitesse du vent
fx = gusts
dd = Direction du vent
rr = Quantités de précipitations

stations d'obs. à proximité